Time;durP1;ratioP1;P1;durP2;ratioP2;P2;SDS_P1;SDS_P2;PMS_P1;PMS_P2;Temp;Humidity;BMP_temperature;BMP_pressure;BME280_temperature;BME280_humidity;BME280_pressure;Samples;Min_cycle;Max_cycle;Signal;HPM_P1;HPM_P2
2022/03/14 07:58:49;;;;;;;16.70;13.43;;;;;;;9.48;81.43;102165.59;5301818;28;20738;-74
2022/03/14 08:01:20;;;;;;;21.27;13.73;;;;;;;9.50;81.21;102171.72;5300828;28;20032;-74
2022/03/14 08:03:51;;;;;;;20.40;13.02;;;;;;;9.58;81.28;102167.69;5300745;28;20111;-74
2022/03/14 08:06:23;;;;;;;19.08;13.18;;;;;;;9.51;81.43;102178.97;5280606;28;20027;-74
2022/03/14 08:08:55;;;;;;;15.20;13.50;;;;;;;9.56;81.52;102187.38;5279549;28;20032;-74
2022/03/14 08:11:29;;;;;;;16.63;14.18;;;;;;;9.62;81.00;102187.44;5279965;28;20103;-74
2022/03/14 08:14:02;;;;;;;15.63;13.43;;;;;;;9.65;80.92;102185.00;5280403;28;20048;-73
2022/03/14 08:16:37;;;;;;;15.80;13.95;;;;;;;9.71;80.68;102188.69;5289547;28;20028;-74
2022/03/14 08:19:08;;;;;;;20.40;13.77;;;;;;;9.73;80.10;102195.66;5281305;28;20438;-75
2022/03/14 08:21:40;;;;;;;21.83;14.73;;;;;;;9.80;80.05;102201.06;5286194;28;20078;-74
2022/03/14 08:24:12;;;;;;;16.10;13.80;;;;;;;9.68;80.14;102198.34;5300617;28;20352;-75
2022/03/14 08:26:44;;;;;;;16.50;12.57;;;;;;;9.70;80.11;102206.41;5286924;28;20173;-74
2022/03/14 08:29:15;;;;;;;18.52;13.57;;;;;;;9.66;79.92;102203.28;5279392;28;20115;-73
2022/03/14 08:31:48;;;;;;;19.48;12.77;;;;;;;9.70;80.21;102206.41;5280555;28;20048;-73
2022/03/14 08:34:19;;;;;;;15.57;12.40;;;;;;;9.75;79.96;102214.81;5298192;28;20051;-74
2022/03/14 08:36:50;;;;;;;16.00;12.80;;;;;;;9.85;79.46;102219.69;5291098;28;20028;-74
2022/03/14 08:39:22;;;;;;;19.55;12.73;;;;;;;9.88;79.22;102220.03;5293868;28;20051;-73
2022/03/14 08:41:53;;;;;;;16.40;12.77;;;;;;;9.91;78.99;102229.75;5283491;28;20032;-74
2022/03/14 08:44:26;;;;;;;16.92;11.65;;;;;;;9.98;78.99;102224.91;5286170;28;20086;-74
2022/03/14 08:46:57;;;;;;;19.30;10.98;;;;;;;9.92;78.46;102231.44;5291970;28;20036;-74
2022/03/14 08:49:32;;;;;;;14.60;12.20;;;;;;;9.92;78.64;102236.97;5280142;28;20094;-74
2022/03/14 08:52:04;;;;;;;13.57;11.07;;;;;;;9.91;78.04;102249.16;5279379;28;20052;-74
2022/03/14 08:54:35;;;;;;;13.05;10.38;;;;;;;9.90;78.05;102251.09;5282504;28;20115;-75
2022/03/14 08:57:07;;;;;;;16.20;11.70;;;;;;;9.91;78.34;102257.47;5287570;28;20043;-74
2022/03/14 08:59:38;;;;;;;15.18;11.70;;;;;;;9.95;78.23;102264.22;5285246;28;20021;-74
2022/03/14 09:02:10;;;;;;;17.15;10.98;;;;;;;9.97;77.60;102257.31;5287183;28;20036;-74
2022/03/14 09:04:41;;;;;;;17.05;11.73;;;;;;;9.97;77.88;102267.53;5297747;28;20051;-73
2022/03/14 09:07:24;;;;;;;12.23;9.98;;;;;;;10.05;77.84;102272.69;5284984;28;20024;-74
2022/03/14 09:10:09;;;;;;;11.43;10.27;;;;;;;10.08;78.02;102279.66;5266163;28;20033;-74
2022/03/14 09:12:42;;;;;;;13.43;10.18;;;;;;;10.23;77.38;102279.94;5264741;28;20048;-74
2022/03/14 09:15:13;;;;;;;11.25;9.65;;;;;;;10.22;76.73;102289.31;5272007;28;20483;-74
2022/03/14 09:17:54;;;;;;;17.42;11.20;;;;;;;10.20;76.69;102283.19;5278528;28;20082;-74
2022/03/14 09:20:27;;;;;;;14.00;9.95;;;;;;;10.17;76.95;102301.16;5276204;28;20486;-74
2022/03/14 09:22:58;;;;;;;11.65;10.02;;;;;;;10.21;76.55;102295.97;5268709;28;20024;-74
2022/03/14 09:25:29;;;;;;;13.45;9.88;;;;;;;10.30;76.62;102304.72;5269093;28;20057;-74
2022/03/14 09:28:01;;;;;;;12.70;9.57;;;;;;;10.37;76.87;102310.94;5273579;28;20101;-74
2022/03/14 09:30:35;;;;;;;10.60;8.55;;;;;;;10.40;75.80;102300.16;5279942;28;20025;-74
2022/03/14 09:33:06;;;;;;;14.13;8.77;;;;;;;10.54;74.88;102302.63;5279907;28;20526;-75
2022/03/14 09:35:38;;;;;;;12.20;8.40;;;;;;;10.53;74.57;102298.16;5268164;28;20036;-74
2022/03/14 09:38:14;;;;;;;9.93;8.73;;;;;;;10.56;74.24;102303.22;5270938;28;20060;-74
2022/03/14 09:40:46;;;;;;;10.02;8.80;;;;;;;10.56;74.32;102317.09;5263137;28;20025;-74
2022/03/14 09:43:17;;;;;;;12.98;9.35;;;;;;;10.53;74.20;102320.34;5270891;28;20047;-74
2022/03/14 09:45:49;;;;;;;10.82;8.75;;;;;;;10.61;74.27;102326.31;5269599;28;20032;-73
2022/03/14 09:48:23;;;;;;;13.82;9.85;;;;;;;10.71;74.33;102333.97;5268761;28;20029;-74
2022/03/14 09:50:55;;;;;;;12.73;8.45;;;;;;;10.73;72.84;102337.31;5274274;28;20021;-74
2022/03/14 09:53:26;;;;;;;13.75;9.18;;;;;;;10.73;72.61;102356.72;5283644;28;20078;-74
2022/03/14 09:55:57;;;;;;;13.30;9.25;;;;;;;10.75;72.91;102353.72;5278317;28;20458;-74
2022/03/14 09:58:29;;;;;;;13.63;9.57;;;;;;;10.80;72.89;102357.41;5276782;28;20047;-74
2022/03/14 10:01:01;;;;;;;12.77;9.13;;;;;;;10.95;73.06;102361.50;5262969;28;20126;-74
2022/03/14 10:03:33;;;;;;;13.82;8.48;;;;;;;10.98;72.41;102370.16;5268298;28;20028;-74
2022/03/14 10:06:07;;;;;;;13.65;9.10;;;;;;;10.92;72.12;102364.81;5275219;28;20024;-74
2022/03/14 10:08:38;;;;;;;12.93;9.90;;;;;;;10.96;72.51;102368.72;5266423;28;20036;-75
2022/03/14 10:11:10;;;;;;;14.75;9.20;;;;;;;10.94;71.90;102370.91;5263977;28;20021;-75
2022/03/14 10:13:41;;;;;;;10.95;8.65;;;;;;;10.91;71.84;102375.03;5268044;28;20040;-74
2022/03/14 10:16:19;;;;;;;13.98;8.65;;;;;;;10.93;71.59;102377.56;5278499;28;20032;-73
2022/03/14 10:18:54;;;;;;;10.35;7.00;;;;;;;10.95;70.66;102373.44;5284626;28;20079;-74
2022/03/14 10:21:31;;;;;;;10.15;8.13;;;;;;;10.97;71.15;102379.59;5281965;28;20424;-73
2022/03/14 10:24:05;;;;;;;7.75;6.90;;;;;;;11.02;71.07;102378.81;5284380;28;20099;-73
2022/03/14 10:26:40;;;;;;;10.18;7.13;;;;;;;11.04;69.86;102385.81;5284114;28;20463;-73
2022/03/14 10:29:13;;;;;;;13.20;8.48;;;;;;;11.03;69.62;102397.16;5272469;28;20024;-74
2022/03/14 10:31:54;;;;;;;9.35;7.60;;;;;;;11.10;70.09;102401.44;5268207;28;20033;-73
2022/03/14 10:34:25;;;;;;;10.18;8.63;;;;;;;11.08;69.48;102397.22;5263685;28;20033;-74
2022/03/14 10:36:57;;;;;;;11.45;7.78;;;;;;;11.19;69.59;102401.81;5266446;28;20499;-74
2022/03/14 10:39:32;;;;;;;12.52;8.05;;;;;;;11.17;69.20;102404.03;5284098;28;20044;-74
2022/03/14 10:42:05;;;;;;;12.60;8.10;;;;;;;11.18;69.72;102404.88;5280470;28;20050;-73
2022/03/14 10:44:40;;;;;;;8.40;7.13;;;;;;;11.28;69.96;102414.19;5267813;28;20029;-70
2022/03/14 10:47:13;;;;;;;11.73;7.35;;;;;;;11.25;69.06;102411.09;5271519;28;20491;-72
2022/03/14 10:49:45;;;;;;;13.07;7.43;;;;;;;11.19;69.21;102415.69;5263768;28;20525;-74
2022/03/14 10:52:20;;;;;;;10.90;8.18;;;;;;;11.23;69.54;102419.66;5262788;28;20021;-73
2022/03/14 10:54:51;;;;;;;11.40;7.90;;;;;;;11.09;69.82;102418.34;5263775;28;20375;-73
2022/03/14 10:57:25;;;;;;;10.52;8.02;;;;;;;10.96;69.40;102427.03;5264897;28;20044;-73
2022/03/14 10:59:57;;;;;;;11.82;7.47;;;;;;;10.96;70.04;102429.78;5277659;28;20116;-74
2022/03/14 11:02:29;;;;;;;11.20;7.78;;;;;;;11.03;69.54;102436.84;5262994;28;20039;-74
2022/03/14 11:05:02;;;;;;;11.88;7.53;;;;;;;11.06;69.83;102432.72;5276958;28;20076;-75
2022/03/14 11:07:36;;;;;;;7.65;6.85;;;;;;;11.20;69.32;102430.44;5284050;28;20021;-77
2022/03/14 11:10:09;;;;;;;10.85;6.60;;;;;;;11.30;68.97;102425.88;5276078;28;20025;-77
2022/03/14 11:12:40;;;;;;;9.63;7.13;;;;;;;11.33;67.07;102430.09;5262342;28;20041;-75
2022/03/14 11:15:13;;;;;;;9.50;6.43;;;;;;;11.37;66.73;102424.84;5264231;28;20353;-75
2022/03/14 11:17:45;;;;;;;9.10;5.85;;;;;;;11.56;66.66;102431.78;5274165;28;20532;-77
2022/03/14 11:20:17;;;;;;;7.90;5.70;;;;;;;11.59;66.09;102431.25;5270528;28;20028;-75
2022/03/14 11:22:49;;;;;;;8.73;6.85;;;;;;;11.57;65.09;102427.91;5262246;28;20517;-75
2022/03/14 11:25:22;;;;;;;9.55;5.47;;;;;;;11.66;64.83;102423.56;5285859;28;20424;-75
2022/03/14 11:27:55;;;;;;;6.93;4.90;;;;;;;11.84;63.38;102429.91;5283225;28;20074;-75
2022/03/14 11:30:29;;;;;;;4.85;3.72;;;;;;;11.98;62.15;102431.19;5267584;28;20151;-76
2022/03/14 11:33:03;;;;;;;8.88;3.42;;;;;;;12.14;60.83;102421.94;5260909;28;20032;-74
2022/03/14 11:35:35;;;;;;;5.53;3.70;;;;;;;12.26;59.96;102432.06;5263144;28;20179;-77
2022/03/14 11:38:08;;;;;;;6.22;3.70;;;;;;;12.29;59.25;102437.09;5244977;28;20033;-77
2022/03/14 11:40:41;;;;;;;10.50;5.20;;;;;;;12.25;60.29;102427.63;5267704;28;20116;-78
2022/03/14 11:43:12;;;;;;;5.10;4.60;;;;;;;12.37;59.92;102439.41;5269697;28;20050;-79
2022/03/14 11:45:45;;;;;;;6.65;4.75;;;;;;;12.49;60.17;102445.66;5266650;28;20021;-78
2022/03/14 11:48:19;;;;;;;6.50;4.45;;;;;;;12.57;59.44;102434.03;5262266;28;20066;-78
2022/03/14 11:50:58;;;;;;;8.57;4.35;;;;;;;12.66;59.34;102442.75;5262193;28;20499;-77
2022/03/14 11:53:35;;;;;;;5.72;4.25;;;;;;;12.52;58.67;102447.88;5261228;28;20368;-76
2022/03/14 11:56:10;;;;;;;5.95;4.50;;;;;;;12.53;58.76;102449.59;5262574;28;20464;-77
2022/03/14 11:58:47;;;;;;;10.02;4.57;;;;;;;12.55;59.21;102452.94;5262530;28;20041;-76
2022/03/14 12:01:26;;;;;;;4.68;4.15;;;;;;;12.61;59.76;102457.44;5261421;28;20101;-74
2022/03/14 12:04:10;;;;;;;12.20;5.38;;;;;;;12.54;59.68;102456.00;5262139;28;20079;-75
2022/03/14 12:06:47;;;;;;;8.82;4.40;;;;;;;12.55;59.87;102446.53;5261267;28;20033;-78
2022/03/14 12:09:24;;;;;;;6.70;4.63;;;;;;;12.55;60.39;102455.75;5262108;28;20115;-76
2022/03/14 12:12:19;;;;;;;8.15;5.28;;;;;;;12.49;60.79;102454.00;5268392;28;20059;-76
2022/03/14 12:14:56;;;;;;;16.40;11.55;;;;;;;12.62;61.23;102450.78;5261302;28;20071;-77
2022/03/14 12:17:30;;;;;;;6.38;5.28;;;;;;;12.84;59.65;102438.72;5262608;28;20036;-77
2022/03/14 12:20:02;;;;;;;7.75;5.38;;;;;;;13.09;59.70;102451.13;5261990;28;20025;-76
2022/03/14 12:22:40;;;;;;;6.75;5.63;;;;;;;13.18;60.03;102443.97;5262234;28;20040;-77
2022/03/14 12:25:40;;;;;;;10.52;5.68;;;;;;;13.37;59.66;102438.81;5282838;28;20384;-76
2022/03/14 12:28:32;;;;;;;6.72;5.25;;;;;;;13.33;59.41;102440.47;5265133;28;20017;-77
2022/03/14 12:31:04;;;;;;;11.90;5.03;;;;;;;13.43;59.60;102435.78;5262230;28;20028;-78
2022/03/14 12:33:38;;;;;;;8.83;4.90;;;;;;;13.26;58.14;102446.25;5261847;28;20468;-78
2022/03/14 12:36:22;;;;;;;9.25;5.57;;;;;;;13.05;59.16;102446.09;5260902;28;20636;-78
2022/03/14 12:39:05;;;;;;;9.38;5.05;;;;;;;13.18;60.05;102443.97;5264286;28;20028;-78
2022/03/14 12:41:41;;;;;;;7.95;6.10;;;;;;;13.23;59.50;102446.78;5267364;28;20042;-76
2022/03/14 12:44:20;;;;;;;10.27;7.18;;;;;;;13.22;58.62;102439.56;5274838;28;20124;-75
2022/03/14 12:46:56;;;;;;;32.65;18.55;;;;;;;13.22;58.36;102443.16;5265749;28;20043;-75
2022/03/14 12:49:39;;;;;;;13.60;9.75;;;;;;;13.28;58.59;102446.84;5265309;28;20059;-75
2022/03/14 12:52:13;;;;;;;11.13;5.45;;;;;;;13.14;57.79;102451.16;5265430;28;20443;-75
2022/03/14 12:54:46;;;;;;;10.70;6.22;;;;;;;13.17;57.63;102447.88;5271374;28;20078;-82
2022/03/14 12:57:22;;;;;;;6.00;5.40;;;;;;;13.52;57.71;102449.22;5264548;28;20386;-78
2022/03/14 13:00:00;;;;;;;6.80;4.97;;;;;;;13.70;57.38;102463.53;5265800;28;20437;-78
2022/03/14 13:02:31;;;;;;;9.20;5.57;;;;;;;13.78;57.33;102452.94;5268110;28;20032;-75
2022/03/14 13:05:08;;;;;;;7.13;5.57;;;;;;;13.66;57.32;102455.97;5282104;28;20036;-78
2022/03/14 13:07:40;;;;;;;10.88;6.38;;;;;;;13.53;58.28;102462.88;5265289;28;20384;-77
2022/03/14 13:10:11;;;;;;;11.32;6.05;;;;;;;13.59;58.00;102463.75;5264168;28;20021;-77
2022/03/14 13:12:51;;;;;;;6.72;6.03;;;;;;;13.65;58.06;102469.09;5275609;28;20033;-77
2022/03/14 13:15:24;;;;;;;13.63;9.48;;;;;;;13.64;57.49;102463.78;5265108;28;20100;-76
2022/03/14 13:17:55;;;;;;;7.50;5.50;;;;;;;13.74;56.80;102468.56;5263949;28;20033;-77
2022/03/14 13:20:27;;;;;;;8.63;5.18;;;;;;;13.74;56.60;102463.81;5267878;28;20464;-76
2022/03/14 13:23:15;;;;;;;7.85;5.03;;;;;;;14.02;56.49;102464.50;5275194;28;20024;-75
2022/03/14 13:25:49;;;;;;;7.95;4.90;;;;;;;13.98;55.41;102464.19;5273316;28;20036;-76
2022/03/14 13:28:28;;;;;;;6.65;5.60;;;;;;;13.76;56.63;102464.41;5276199;28;20029;-75
2022/03/14 13:31:02;;;;;;;9.43;5.00;;;;;;;13.62;56.80;102461.25;5264166;28;20444;-78
2022/03/14 13:33:39;;;;;;;8.60;6.20;;;;;;;13.56;56.63;102462.34;5277513;28;20033;-78
2022/03/14 13:36:16;;;;;;;7.57;5.13;;;;;;;13.43;56.94;102463.66;5284885;28;20078;-76
2022/03/14 13:38:51;;;;;;;8.70;6.13;;;;;;;13.36;57.69;102456.66;5264395;28;20050;-77
2022/03/14 13:41:26;;;;;;;31.45;28.13;;;;;;;13.32;57.96;102461.94;5264576;28;20027;-77
2022/03/14 13:43:59;;;;;;;24.65;15.93;;;;;;;13.40;57.51;102457.81;5264330;28;20021;-77
2022/03/14 13:46:34;;;;;;;10.32;5.75;;;;;;;13.37;57.03;102464.75;5263553;28;20021;-74
2022/03/14 13:49:12;;;;;;;8.02;5.60;;;;;;;13.43;56.60;102474.81;5263987;28;20037;-75
2022/03/14 13:51:58;;;;;;;9.32;7.40;;;;;;;13.36;57.71;102474.22;5263910;28;20021;-75
2022/03/14 13:54:43;;;;;;;11.65;6.97;;;;;;;13.10;58.57;102484.31;5274591;28;20025;-76
2022/03/14 13:57:15;;;;;;;9.32;6.15;;;;;;;13.18;58.30;102482.97;5283904;28;20052;-75
2022/03/14 13:59:48;;;;;;;10.18;7.18;;;;;;;13.10;58.15;102486.25;5284274;28;20017;-76
2022/03/14 14:02:32;;;;;;;12.93;7.32;;;;;;;13.07;58.80;102481.22;5265212;28;20020;-77
2022/03/14 14:05:11;;;;;;;11.15;9.82;;;;;;;12.92;62.22;102491.13;5271608;28;20032;-78
2022/03/14 14:07:54;;;;;;;11.88;10.05;;;;;;;12.80;64.67;102498.81;5266303;28;20061;-76
2022/03/14 14:10:34;;;;;;;13.00;9.63;;;;;;;12.81;64.47;102490.22;5264497;28;20427;-75
2022/03/14 14:13:05;;;;;;;14.63;10.38;;;;;;;13.00;64.23;102493.41;5278404;28;20050;-75
2022/03/14 14:15:42;;;;;;;12.23;8.68;;;;;;;12.77;60.61;102486.25;5284947;28;20107;-76
2022/03/14 14:18:19;;;;;;;12.73;8.38;;;;;;;12.89;59.78;102486.09;5276096;28;20025;-76
2022/03/14 14:20:51;;;;;;;11.38;8.45;;;;;;;12.95;58.90;102489.75;5262909;28;20017;-76
2022/03/14 14:23:23;;;;;;;9.15;7.88;;;;;;;13.03;58.66;102486.47;5263527;28;20128;-75
2022/03/14 14:25:54;;;;;;;31.55;26.25;;;;;;;13.26;58.40;102485.25;5263627;28;20100;-76
2022/03/14 14:28:26;;;;;;;10.32;8.13;;;;;;;13.38;57.83;102485.09;5272693;28;20051;-76
2022/03/14 14:30:57;;;;;;;9.68;8.30;;;;;;;13.59;56.24;102481.31;5283382;28;20070;-77
2022/03/14 14:33:33;;;;;;;9.55;7.55;;;;;;;13.51;55.54;102481.81;5284297;28;20387;-77
2022/03/14 14:36:05;;;;;;;10.30;7.18;;;;;;;13.73;55.95;102478.88;5283626;28;20486;-75
2022/03/14 14:38:37;;;;;;;10.40;7.05;;;;;;;13.94;55.13;102474.22;5283934;28;20039;-76
2022/03/14 14:41:11;;;;;;;10.00;6.55;;;;;;;14.10;54.60;102472.34;5283276;28;20058;-75
2022/03/14 14:43:43;;;;;;;10.35;6.85;;;;;;;14.26;53.81;102470.41;5283835;28;20483;-76
2022/03/14 14:46:15;;;;;;;7.60;5.90;;;;;;;14.45;53.26;102467.97;5266852;28;20111;-76
2022/03/14 14:48:47;;;;;;;8.90;6.50;;;;;;;14.54;53.32;102463.53;5263138;28;20109;-77
2022/03/14 14:51:22;;;;;;;9.60;6.18;;;;;;;14.66;53.29;102464.09;5263237;28;20463;-74
2022/03/14 14:53:53;;;;;;;10.85;6.95;;;;;;;14.54;53.72;102455.16;5262564;28;20079;-73
2022/03/14 14:56:24;;;;;;;11.57;6.35;;;;;;;14.16;53.95;102460.06;5262153;28;20104;-76
2022/03/14 14:59:03;;;;;;;9.13;6.57;;;;;;;14.03;54.42;102461.41;5263025;28;20136;-75
2022/03/14 15:01:35;;;;;;;8.73;5.97;;;;;;;13.88;53.78;102458.56;5263804;28;20025;-76
2022/03/14 15:04:06;;;;;;;8.55;5.28;;;;;;;14.25;53.08;102447.25;5262911;28;20039;-79
2022/03/14 15:06:38;;;;;;;8.13;4.90;;;;;;;14.10;52.68;102455.59;5262269;28;20036;-77
2022/03/14 15:09:09;;;;;;;8.27;5.40;;;;;;;14.06;53.25;102460.03;5263834;28;20029;-78
2022/03/14 15:11:41;;;;;;;7.85;4.25;;;;;;;14.16;53.14;102464.81;5265191;28;20108;-76
2022/03/14 15:14:14;;;;;;;9.55;5.18;;;;;;;14.42;52.31;102457.31;5273202;28;20103;-74
2022/03/14 15:16:46;;;;;;;7.35;5.18;;;;;;;14.54;52.56;102455.97;5282217;28;20059;-74
2022/03/14 15:19:17;;;;;;;9.02;5.65;;;;;;;14.67;52.29;102465.75;5270400;28;20060;-74
2022/03/14 15:21:49;;;;;;;9.57;5.40;;;;;;;14.72;51.45;102462.97;5279834;28;20032;-74
2022/03/14 15:24:20;;;;;;;7.43;5.80;;;;;;;14.64;51.49;102471.91;5276652;28;20086;-75
2022/03/14 15:26:51;;;;;;;8.50;5.30;;;;;;;14.74;50.73;102473.88;5263416;28;20029;-75
2022/03/14 15:29:23;;;;;;;10.30;6.13;;;;;;;14.69;50.09;102471.91;5262677;28;20071;-75
2022/03/14 15:31:55;;;;;;;15.15;10.05;;;;;;;14.78;50.76;102483.38;5261768;28;20032;-73
2022/03/14 15:34:26;;;;;;;10.52;5.72;;;;;;;14.68;50.99;102481.41;5273324;28;20052;-74
2022/03/14 15:36:57;;;;;;;7.47;6.00;;;;;;;14.89;50.88;102475.84;5286718;28;20055;-75
2022/03/14 15:39:28;;;;;;;8.27;6.13;;;;;;;14.92;50.74;102484.50;5273275;28;20083;-74
2022/03/14 15:42:00;;;;;;;10.25;6.47;;;;;;;14.72;51.00;102482.53;5262347;28;20023;-75
2022/03/14 15:44:31;;;;;;;9.65;6.28;;;;;;;14.90;51.56;102485.88;5273869;28;20119;-75
2022/03/14 15:47:03;;;;;;;11.13;6.43;;;;;;;14.76;50.88;102491.19;5283395;28;20111;-75
2022/03/14 15:49:35;;;;;;;12.85;7.15;;;;;;;14.57;51.77;102496.47;5283320;28;20082;-74
2022/03/14 15:52:07;;;;;;;12.77;6.68;;;;;;;14.45;52.56;102501.47;5281724;28;20031;-74
2022/03/14 15:54:41;;;;;;;12.40;6.82;;;;;;;14.50;53.04;102493.09;5279888;28;20033;-72
2022/03/14 15:57:13;;;;;;;12.38;6.97;;;;;;;14.43;53.40;102504.50;5282475;28;20389;-73
2022/03/14 15:59:45;;;;;;;9.52;6.65;;;;;;;14.20;53.09;102500.25;5282552;28;20081;-75
2022/03/14 16:02:17;;;;;;;9.98;6.55;;;;;;;14.20;53.67;102505.00;5283728;28;20031;-76
2022/03/14 16:04:48;;;;;;;10.77;5.95;;;;;;;14.25;53.98;102513.41;5281349;28;20028;-75
2022/03/14 16:07:20;;;;;;;9.63;6.13;;;;;;;14.01;54.58;102519.47;5261912;28;20025;-75
2022/03/14 16:09:52;;;;;;;10.30;6.25;;;;;;;13.87;54.54;102523.84;5269107;28;20032;-75
2022/03/14 16:12:24;;;;;;;11.05;6.28;;;;;;;13.98;55.31;102536.72;5278048;28;20503;-75
2022/03/14 16:14:55;;;;;;;12.80;7.13;;;;;;;13.86;55.17;102542.53;5264989;28;20056;-76
2022/03/14 16:17:26;;;;;;;10.55;5.78;;;;;;;14.00;55.71;102536.44;5271883;28;20047;-76
2022/03/14 16:19:59;;;;;;;11.18;5.82;;;;;;;13.91;55.17;102536.16;5267308;28;20090;-76
2022/03/14 16:22:30;;;;;;;11.80;7.03;;;;;;;13.96;55.78;102532.50;5278695;28;20019;-75
2022/03/14 16:25:02;;;;;;;12.30;6.18;;;;;;;13.95;55.52;102542.00;5287322;28;20025;-75
2022/03/14 16:27:34;;;;;;;10.52;6.57;;;;;;;14.00;55.40;102542.88;5282490;28;20028;-76
2022/03/14 16:30:06;;;;;;;10.80;6.20;;;;;;;14.01;55.26;102552.06;5287655;28;20032;-76
2022/03/14 16:32:40;;;;;;;10.80;6.35;;;;;;;14.00;55.48;102561.56;5286961;28;20025;-77
2022/03/14 16:35:14;;;;;;;10.20;6.45;;;;;;;13.90;56.28;102552.00;5265402;28;20025;-77
2022/03/14 16:37:45;;;;;;;12.05;6.88;;;;;;;13.90;56.26;102554.81;5265696;28;20440;-76
2022/03/14 16:40:18;;;;;;;11.15;7.13;;;;;;;13.80;56.09;102549.16;5266115;28;20046;-77
2022/03/14 16:42:50;;;;;;;8.02;6.57;;;;;;;13.81;56.63;102550.88;5265133;28;20025;-75
2022/03/14 16:45:23;;;;;;;10.40;6.35;;;;;;;13.67;56.85;102564.44;5271436;28;20056;-75
2022/03/14 16:47:54;;;;;;;14.63;8.82;;;;;;;13.73;56.56;102562.53;5265206;28;20028;-74
2022/03/14 16:50:26;;;;;;;11.88;6.75;;;;;;;13.68;56.92;102565.28;5265626;28;20096;-74
2022/03/14 16:52:57;;;;;;;9.65;6.28;;;;;;;13.72;57.27;102577.56;5265378;28;20021;-75
2022/03/14 16:55:32;;;;;;;11.15;7.10;;;;;;;13.66;56.88;102581.44;5264536;28;20029;-71
2022/03/14 16:58:04;;;;;;;;;;;;;;;13.82;56.47;102580.41;5265405;28;20051;-72
2022/03/14 17:00:36;;;;;;;8.48;7.22;;;;;;;13.56;57.52;102579.41;5266024;28;20354;-71
2022/03/14 17:03:07;;;;;;;13.60;7.63;;;;;;;13.49;57.74;102585.22;5265162;28;20031;-70
2022/03/14 17:05:39;;;;;;;12.27;7.90;;;;;;;13.54;57.97;102581.63;5276909;28;20032;-70
2022/03/14 17:08:10;;;;;;;10.25;7.55;;;;;;;13.53;58.31;102581.91;5285927;28;20028;-71
2022/03/14 17:10:48;;;;;;;13.13;7.63;;;;;;;13.47;58.51;102586.59;5285250;28;20039;-69
2022/03/14 17:13:21;;;;;;;12.45;7.97;;;;;;;13.47;57.86;102576.31;5285652;28;20031;-69
2022/03/14 17:15:52;;;;;;;22.15;18.33;;;;;;;13.51;58.12;102584.13;5283123;28;20150;-70
2022/03/14 17:18:24;;;;;;;19.35;13.25;;;;;;;13.49;58.72;102585.22;5283529;28;20062;-69
2022/03/14 17:20:56;;;;;;;15.43;8.45;;;;;;;13.36;58.83;102588.47;5284855;28;20048;-70
2022/03/14 17:23:27;;;;;;;11.57;8.00;;;;;;;13.45;58.45;102589.66;5280823;28;20029;-70
2022/03/14 17:25:59;;;;;;;11.23;7.88;;;;;;;13.40;58.22;102597.16;5275097;28;20027;-69
2022/03/14 17:28:31;;;;;;;15.35;9.18;;;;;;;13.37;58.45;102598.50;5267554;28;20021;-69
